Time;durP1;ratioP1;P1;durP2;ratioP2;P2;SDS_P1;SDS_P2;PMS_P1;PMS_P2;Temp;Humidity;BMP_temperature;BMP_pressure;BME280_temperature;BME280_humidity;BME280_pressure;Samples;Min_cycle;Max_cycle;Signal;HPM_P1;HPM_P2
2022/04/13 00:01:36;;;;;;;5.67;2.47;;;;;;;;;;4993498;28;20221;-78
2022/04/13 00:04:01;;;;;;;2.97;2.50;;;;;;;;;;4987634;28;20254;-78
2022/04/13 00:06:27;;;;;;;2.90;2.40;;;;;;;;;;4998193;28;20241;-78
2022/04/13 00:08:55;;;;;;;4.20;2.57;;;;;;;;;;4976440;28;20386;-78
2022/04/13 00:11:21;;;;;;;3.97;2.90;;;;;;;;;;5010320;28;20309;-75
2022/04/13 00:13:47;;;;;;;3.70;2.80;;;;;;;;;;5010118;28;20363;-77
2022/04/13 00:16:15;;;;;;;4.13;2.80;;;;;;;;;;5001645;28;20253;-77
2022/04/13 00:18:42;;;;;;;4.13;2.97;;;;;;;;;;4962355;28;20226;-77
2022/04/13 00:21:08;;;;;;;4.50;3.00;;;;;;;;;;4977321;28;20286;-77
2022/04/13 00:23:33;;;;;;;3.50;2.97;;;;;;;;;;4982078;28;20255;-78
2022/04/13 00:25:59;;;;;;;4.17;2.90;;;;;;;;;;4980438;28;20225;-77
2022/04/13 00:28:24;;;;;;;3.13;2.83;;;;;;;;;;4982613;28;20631;-77
2022/04/13 00:30:50;;;;;;;4.33;3.10;;;;;;;;;;4985260;28;20225;-77
2022/04/13 00:33:17;;;;;;;4.67;2.90;;;;;;;;;;4977807;28;20760;-77
2022/04/13 00:35:43;;;;;;;4.53;2.90;;;;;;;;;;5003999;28;20332;-77
2022/04/13 00:38:13;;;;;;;5.60;3.17;;;;;;;;;;4989685;28;20222;-77
2022/04/13 00:40:43;;;;;;;4.77;3.07;;;;;;;;;;5005821;28;20236;-78
2022/04/13 00:43:12;;;;;;;4.30;2.80;;;;;;;;;;4969552;28;20222;-76
2022/04/13 00:45:37;;;;;;;4.63;2.83;;;;;;;;;;4993585;28;20221;-77
2022/04/13 00:48:06;;;;;;;6.27;2.97;;;;;;;;;;4987415;28;20232;-77
2022/04/13 00:50:34;;;;;;;4.60;3.37;;;;;;;;;;5003629;28;20218;-77
2022/04/13 00:52:59;;;;;;;3.70;3.03;;;;;;;;;;5001363;28;20225;-77
2022/04/13 00:55:28;;;;;;;4.10;2.97;;;;;;;;;;4985636;28;20949;-77
2022/04/13 00:57:54;;;;;;;4.30;2.80;;;;;;;;;;4987195;28;20613;-78
2022/04/13 01:00:21;;;;;;;4.30;3.07;;;;;;;;;;4999519;28;20244;-78
2022/04/13 01:02:47;;;;;;;4.80;3.20;;;;;;;;;;4995912;28;20293;-78
2022/04/13 01:05:12;;;;;;;4.03;3.00;;;;;;;;;;4977241;28;20250;-77
2022/04/13 01:07:39;;;;;;;4.13;2.80;;;;;;;;;;4987569;28;20233;-78
2022/04/13 01:10:08;;;;;;;4.50;3.03;;;;;;;;;;4992162;28;20229;-77
2022/04/13 01:12:34;;;;;;;6.20;3.30;;;;;;;;;;4994202;28;20221;-78
2022/04/13 01:14:59;;;;;;;4.40;3.40;;;;;;;;;;4987187;28;20224;-78
2022/04/13 01:17:25;;;;;;;5.17;3.50;;;;;;;;;;4993005;28;20657;-78
2022/04/13 01:19:54;;;;;;;4.87;3.10;;;;;;;;;;4979887;28;20850;-77
2022/04/13 01:22:25;;;;;;;7.30;3.60;;;;;;;;;;4978225;28;20305;-77
2022/04/13 01:24:53;;;;;;;5.77;3.33;;;;;;;;;;4961604;28;20616;-78
2022/04/13 01:27:21;;;;;;;5.93;3.50;;;;;;;;;;4964884;28;20234;-78
2022/04/13 01:29:54;;;;;;;3.70;2.93;;;;;;;;;;4962312;28;20218;-77
2022/04/13 01:32:24;;;;;;;5.97;3.47;;;;;;;;;;4987964;28;20253;-77
2022/04/13 01:34:50;;;;;;;8.00;3.80;;;;;;;;;;5007139;28;20229;-77
2022/04/13 01:37:16;;;;;;;5.53;3.70;;;;;;;;;;5010694;28;20281;-76
2022/04/13 01:39:42;;;;;;;4.77;3.47;;;;;;;;;;4981877;28;20264;-78
2022/04/13 01:42:07;;;;;;;5.27;3.70;;;;;;;;;;4978819;28;20240;-78
2022/04/13 01:44:33;;;;;;;4.70;3.50;;;;;;;;;;4963847;28;20221;-78
2022/04/13 01:47:00;;;;;;;6.27;3.50;;;;;;;;;;4993198;28;20750;-77
2022/04/13 01:49:31;;;;;;;4.33;3.30;;;;;;;;;;5000727;28;20644;-77
2022/04/13 01:51:57;;;;;;;6.30;3.60;;;;;;;;;;4988155;28;20281;-79
2022/04/13 01:54:22;;;;;;;5.07;3.87;;;;;;;;;;4981560;28;20257;-77
2022/04/13 01:56:48;;;;;;;5.13;3.27;;;;;;;;;;4990077;28;20517;-77
2022/04/13 01:59:13;;;;;;;4.87;3.47;;;;;;;;;;4978282;28;20277;-77
2022/04/13 02:01:43;;;;;;;4.20;3.57;;;;;;;;;;5001099;28;20244;-77
2022/04/13 02:04:19;;;;;;;6.83;3.83;;;;;;;;;;5000279;28;20242;-78
2022/04/13 02:06:46;;;;;;;4.83;3.67;;;;;;;;;;4983307;28;20225;-78
2022/04/13 02:09:12;;;;;;;4.73;3.43;;;;;;;;;;4980997;28;20268;-77
2022/04/13 02:11:37;;;;;;;4.20;3.80;;;;;;;;;;4998616;28;20316;-78
2022/04/13 02:14:03;;;;;;;5.47;3.80;;;;;;;;;;5006936;28;20249;-77
2022/04/13 02:16:28;;;;;;;5.40;3.33;;;;;;;;;;4994163;28;20233;-76
2022/04/13 02:18:54;;;;;;;5.13;3.40;;;;;;;;;;4992995;28;20248;-77
2022/04/13 02:21:21;;;;;;;6.60;3.80;;;;;;;;;;4998708;28;20245;-77
2022/04/13 02:23:49;;;;;;;6.13;3.70;;;;;;;;;;5004139;28;20233;-77
2022/04/13 02:26:19;;;;;;;5.67;3.97;;;;;;;;;;5005153;28;20222;-76
2022/04/13 02:28:45;;;;;;;6.97;4.23;;;;;;;;;;4994664;28;20218;-77
2022/04/13 02:31:15;;;;;;;7.47;4.40;;;;;;;;;;4980673;28;20706;-77
2022/04/13 02:33:43;;;;;;;6.27;4.07;;;;;;;;;;4964802;28;20256;-77
2022/04/13 02:36:08;;;;;;;7.83;4.47;;;;;;;;;;5011292;28;20233;-76
2022/04/13 02:38:34;;;;;;;5.37;4.03;;;;;;;;;;4996015;28;20225;-78
2022/04/13 02:41:00;;;;;;;5.20;3.80;;;;;;;;;;4995898;28;20246;-76
2022/04/13 02:43:27;;;;;;;5.40;4.10;;;;;;;;;;5000551;28;20272;-77
2022/04/13 02:45:56;;;;;;;5.07;4.20;;;;;;;;;;4990464;28;20673;-77
2022/04/13 02:48:25;;;;;;;6.77;4.33;;;;;;;;;;4966791;28;20263;-78
2022/04/13 02:50:52;;;;;;;5.30;4.10;;;;;;;;;;4983981;28;20575;-77
2022/04/13 02:53:18;;;;;;;6.17;4.40;;;;;;;;;;4975666;28;20260;-78
2022/04/13 02:55:43;;;;;;;7.57;4.40;;;;;;;;;;4992430;28;20244;-77
2022/04/13 02:58:11;;;;;;;6.57;4.40;;;;;;;;;;4974780;28;20225;-77
2022/04/13 03:00:38;;;;;;;6.17;4.23;;;;;;;;;;4981513;28;20244;-77
2022/04/13 03:03:04;;;;;;;7.50;4.80;;;;;;;;;;4978260;28;20715;-77
2022/04/13 03:05:36;;;;;;;6.07;4.43;;;;;;;;;;4982174;28;20221;-77
2022/04/13 03:08:03;;;;;;;5.20;4.27;;;;;;;;;;5005124;28;20232;-78
2022/04/13 03:10:30;;;;;;;5.80;4.47;;;;;;;;;;4984192;28;20224;-76
2022/04/13 03:12:58;;;;;;;7.93;4.80;;;;;;;;;;4964075;28;20230;-77
2022/04/13 03:15:24;;;;;;;6.53;4.43;;;;;;;;;;4988883;28;20229;-77
2022/04/13 03:17:54;;;;;;;6.07;4.60;;;;;;;;;;4960103;28;20228;-78
2022/04/13 03:20:19;;;;;;;6.97;4.87;;;;;;;;;;5004782;28;20229;-77
2022/04/13 03:22:45;;;;;;;6.37;4.90;;;;;;;;;;4967530;28;20250;-77
2022/04/13 03:25:18;;;;;;;6.83;4.70;;;;;;;;;;4981836;28;20254;-77
2022/04/13 03:27:44;;;;;;;5.57;4.83;;;;;;;;;;4988380;28;20229;-78
2022/04/13 03:30:13;;;;;;;7.10;5.07;;;;;;;;;;4987606;28;20234;-77
2022/04/13 03:32:39;;;;;;;6.27;4.63;;;;;;;;;;4990993;28;20221;-78
2022/04/13 03:35:05;;;;;;;7.97;5.07;;;;;;;;;;4976809;28;20240;-77
2022/04/13 03:37:31;;;;;;;7.57;5.33;;;;;;;;;;5009063;28;20218;-77
2022/04/13 03:39:56;;;;;;;8.53;4.97;;;;;;;;;;4985756;28;20741;-78
2022/04/13 03:42:22;;;;;;;8.30;5.10;;;;;;;;;;4994846;28;20648;-77
2022/04/13 03:44:47;;;;;;;7.13;5.07;;;;;;;;;;4987303;28;20308;-77
2022/04/13 03:47:15;;;;;;;6.63;4.80;;;;;;;;;;4982118;28;20252;-77
2022/04/13 03:49:41;;;;;;;7.13;4.90;;;;;;;;;;5002318;28;20675;-77
2022/04/13 03:52:09;;;;;;;8.13;4.97;;;;;;;;;;5002069;28;20256;-78
2022/04/13 03:54:37;;;;;;;5.93;4.73;;;;;;;;;;4978443;28;20226;-78
2022/04/13 03:57:02;;;;;;;10.97;5.17;;;;;;;;;;4993012;28;20609;-77
2022/04/13 03:59:28;;;;;;;8.97;4.80;;;;;;;;;;4999149;28;20225;-77
2022/04/13 04:01:54;;;;;;;7.00;5.03;;;;;;;;;;5007892;28;20237;-77
2022/04/13 04:04:19;;;;;;;6.50;4.90;;;;;;;;;;4993336;28;20309;-76
2022/04/13 04:06:45;;;;;;;7.40;4.80;;;;;;;;;;5011945;28;20275;-77
2022/04/13 04:09:11;;;;;;;7.17;5.47;;;;;;;;;;4978571;28;20279;-77
2022/04/13 04:11:36;;;;;;;6.23;5.00;;;;;;;;;;4968263;28;20304;-77
2022/04/13 04:14:02;;;;;;;6.83;5.57;;;;;;;;;;4968780;28;20233;-77
2022/04/13 04:16:27;;;;;;;8.37;5.27;;;;;;;;;;4983592;28;20222;-77
2022/04/13 04:18:55;;;;;;;8.43;5.23;;;;;;;;;;5000013;28;20308;-77
2022/04/13 04:21:20;;;;;;;6.33;5.53;;;;;;;;;;4982753;28;20232;-78
2022/04/13 04:23:51;;;;;;;7.20;5.10;;;;;;;;;;4967230;28;20237;-78
2022/04/13 04:26:16;;;;;;;5.77;5.07;;;;;;;;;;4977640;28;20233;-77
2022/04/13 04:28:42;;;;;;;7.00;5.30;;;;;;;;;;4981910;28;20294;-76
2022/04/13 04:31:08;;;;;;;6.70;5.33;;;;;;;;;;4963378;28;20712;-75
2022/04/13 04:33:33;;;;;;;7.77;5.43;;;;;;;;;;5008342;28;20221;-77
2022/04/13 04:35:59;;;;;;;7.80;5.50;;;;;;;;;;5004370;28;20221;-78
2022/04/13 04:38:27;;;;;;;7.17;5.47;;;;;;;;;;4990892;28;20299;-78
2022/04/13 04:40:53;;;;;;;7.40;5.73;;;;;;;;;;4999772;28;20237;-78
2022/04/13 04:43:19;;;;;;;6.90;5.23;;;;;;;;;;5000323;28;20229;-76
2022/04/13 04:45:48;;;;;;;6.63;5.43;;;;;;;;;;4985588;28;20214;-76
2022/04/13 04:48:16;;;;;;;7.03;5.60;;;;;;;;;;4964026;28;20700;-76
2022/04/13 04:50:44;;;;;;;8.27;5.23;;;;;;;;;;4965940;28;20338;-76
2022/04/13 04:53:10;;;;;;;8.00;5.17;;;;;;;;;;4977332;28;20229;-79
2022/04/13 04:55:35;;;;;;;6.77;4.90;;;;;;;;;;4986184;28;20758;-77
2022/04/13 04:58:03;;;;;;;5.93;4.90;;;;;;;;;;4983234;28;20678;-76
2022/04/13 05:00:29;;;;;;;8.33;5.63;;;;;;;;;;5009774;28;20236;-78
2022/04/13 05:02:55;;;;;;;6.43;5.30;;;;;;;;;;5011184;28;20257;-78
2022/04/13 05:05:22;;;;;;;7.57;5.30;;;;;;;;;;5008650;28;20234;-78
2022/04/13 05:07:47;;;;;;;6.67;5.07;;;;;;;;;;4969111;28;20226;-78
2022/04/13 05:10:18;;;;;;;6.03;5.00;;;;;;;;;;4976287;28;20296;-77
2022/04/13 05:12:52;;;;;;;8.33;5.80;;;;;;;;;;4993374;28;20253;-77
2022/04/13 05:15:17;;;;;;;6.13;5.30;;;;;;;;;;5002049;28;20222;-77
2022/04/13 05:17:43;;;;;;;10.30;5.63;;;;;;;;;;4981919;28;20265;-77
2022/04/13 05:20:10;;;;;;;5.57;4.70;;;;;;;;;;4997230;28;20229;-77
2022/04/13 05:22:38;;;;;;;7.43;5.40;;;;;;;;;;4964446;28;20608;-78
2022/04/13 05:25:05;;;;;;;9.63;6.00;;;;;;;;;;4995855;28;20230;-77
2022/04/13 05:27:33;;;;;;;6.63;5.30;;;;;;;;;;4963832;28;20221;-77
2022/04/13 05:29:59;;;;;;;6.13;5.03;;;;;;;;;;4977706;28;20222;-77
2022/04/13 05:32:27;;;;;;;6.63;5.70;;;;;;;;;;4998331;28;20249;-77
2022/04/13 05:34:59;;;;;;;7.53;5.70;;;;;;;;;;4972680;28;20251;-79
2022/04/13 05:37:25;;;;;;;7.83;5.50;;;;;;;;;;4993985;28;20236;-78
2022/04/13 05:39:50;;;;;;;8.13;5.60;;;;;;;;;;4993374;28;20222;-78
2022/04/13 05:42:21;;;;;;;6.87;5.47;;;;;;;;;;4991323;28;20285;-77
2022/04/13 05:44:51;;;;;;;11.13;5.80;;;;;;;;;;5020719;28;20268;-77
2022/04/13 05:47:17;;;;;;;9.43;6.40;;;;;;;;;;5001544;28;20292;-76
2022/04/13 05:49:43;;;;;;;7.67;6.03;;;;;;;;;;5008662;28;20611;-77
2022/04/13 05:52:11;;;;;;;8.43;5.70;;;;;;;;;;5004068;28;20218;-76
2022/04/13 05:54:36;;;;;;;7.80;6.37;;;;;;;;;;4997533;28;20254;-77
2022/04/13 05:57:04;;;;;;;8.67;6.47;;;;;;;;;;5019409;28;20201;-78
2022/04/13 05:59:32;;;;;;;8.13;6.33;;;;;;;;;;4988535;28;20229;-77
2022/04/13 06:02:00;;;;;;;8.47;6.47;;;;;;;;;;4994755;28;20226;-77
2022/04/13 06:04:25;;;;;;;7.60;6.30;;;;;;;;;;4992535;28;20245;-77
2022/04/13 06:06:59;;;;;;;9.63;6.67;;;;;;;;;;5004602;28;20903;-77
2022/04/13 06:09:25;;;;;;;8.33;6.50;;;;;;;;;;5008291;28;20221;-77
2022/04/13 06:11:50;;;;;;;8.70;7.00;;;;;;;;;;5017288;28;20317;-77
2022/04/13 06:14:19;;;;;;;9.60;6.53;;;;;;;;;;5009585;28;20247;-77
2022/04/13 06:16:45;;;;;;;8.50;6.27;;;;;;;;;;4990092;28;20229;-77
2022/04/13 06:19:15;;;;;;;8.07;6.97;;;;;;;;;;4965492;28;20224;-79
2022/04/13 06:21:44;;;;;;;12.03;7.53;;;;;;;;;;4971944;28;20230;-78
2022/04/13 06:24:14;;;;;;;9.43;6.80;;;;;;;;;;5006596;28;20691;-76
2022/04/13 06:26:43;;;;;;;8.10;6.80;;;;;;;;;;4988678;28;20248;-79
2022/04/13 06:29:10;;;;;;;9.03;6.67;;;;;;;;;;4991809;28;20220;-75
2022/04/13 06:31:36;;;;;;;8.80;7.03;;;;;;;;;;4985481;28;20221;-75
2022/04/13 06:34:01;;;;;;;9.70;6.73;;;;;;;;;;4981680;28;20245;-76
2022/04/13 06:36:29;;;;;;;9.27;7.10;;;;;;;;;;4993890;28;20217;-75
2022/04/13 06:38:59;;;;;;;9.30;6.83;;;;;;;;;;5004642;28;20245;-77
2022/04/13 06:41:24;;;;;;;9.83;7.10;;;;;;;;;;4986736;28;20235;-79
2022/04/13 06:43:53;;;;;;;8.63;7.07;;;;;;;;;;4995898;28;20225;-77
2022/04/13 06:46:21;;;;;;;9.17;7.10;;;;;;;;;;4996916;28;20691;-79
2022/04/13 06:48:49;;;;;;;9.47;7.27;;;;;;;;;;5011033;28;20233;-77
2022/04/13 06:51:17;;;;;;;8.40;6.30;;;;;;;;;;5004256;28;20229;-79
2022/04/13 06:53:43;;;;;;;8.87;7.00;;;;;;;;;;4969358;28;20229;-79
2022/04/13 06:56:08;;;;;;;8.00;7.17;;;;;;;;;;4989831;28;20243;-79
2022/04/13 06:58:34;;;;;;;8.47;6.63;;;;;;;;;;4976619;28;20311;-78
2022/04/13 07:01:08;;;;;;;9.80;7.10;;;;;;;;;;4990256;28;20224;-77
2022/04/13 07:03:35;;;;;;;10.75;6.78;;;;;;;;;;4969696;28;20304;-76
2022/04/13 07:06:09;;;;;;;8.80;6.03;;;;;;;;;;4995408;28;20233;-78
2022/04/13 07:08:34;;;;;;;8.48;6.65;;;;;;;;;;4968032;28;20344;-78
2022/04/13 07:11:02;;;;;;;8.13;6.97;;;;;;;;;;4967210;28;20815;-78
2022/04/13 07:13:28;;;;;;;7.80;6.35;;;;;;;;;;4983265;28;20225;-77
2022/04/13 07:15:55;;;;;;;9.87;7.07;;;;;;;;;;4994275;28;20225;-78
2022/04/13 07:18:25;;;;;;;7.53;6.55;;;;;;;;;;5014128;28;20237;-79
2022/04/13 07:20:53;;;;;;;9.25;6.68;;;;;;;;;;5013227;28;20272;-78
2022/04/13 07:23:20;;;;;;;9.63;6.43;;;;;;;;;;4991669;28;20654;-78
2022/04/13 07:25:48;;;;;;;8.50;6.40;;;;;;;;;;5003975;28;20225;-78
2022/04/13 07:28:20;;;;;;;8.10;6.82;;;;;;;;;;4980830;28;20232;-78
2022/04/13 07:30:47;;;;;;;7.43;6.57;;;;;;;;;;5007986;28;20222;-78
2022/04/13 07:33:15;;;;;;;8.38;6.53;;;;;;;;;;4998078;28;20578;-78
2022/04/13 07:35:43;;;;;;;7.38;6.57;;;;;;;;;;4978276;28;20252;-77
2022/04/13 07:38:11;;;;;;;6.97;6.25;;;;;;;;;;4985875;28;20259;-77
2022/04/13 07:40:41;;;;;;;8.30;6.57;;;;;;;;;;4973112;28;20233;-75
2022/04/13 07:43:07;;;;;;;9.32;7.78;;;;;;;;;;4979607;28;20463;-76
2022/04/13 07:45:35;;;;;;;9.45;7.30;;;;;;;;;;4982982;28;20268;-77
2022/04/13 07:48:02;;;;;;;8.02;7.15;;;;;;;;;;4981285;28;20237;-75
2022/04/13 07:50:28;;;;;;;8.07;6.50;;;;;;;;;;5014513;28;20229;-77
2022/04/13 07:52:54;;;;;;;8.38;7.57;;;;;;;;;;4994049;28;20436;-76
2022/04/13 07:55:19;;;;;;;7.47;6.20;;;;;;;;;;4991357;28;20296;-76
2022/04/13 07:57:47;;;;;;;7.32;6.63;;;;;;;;;;4985309;28;20232;-77
2022/04/13 08:00:13;;;;;;;7.07;6.30;;;;;;;;;;4997304;28;20240;-74
2022/04/13 08:02:50;;;;;;;8.05;6.15;;;;;;;;;;4999890;28;20222;-76
2022/04/13 08:05:41;;;;;;;8.98;6.50;;;;;;;;;;5005939;28;20724;-76
2022/04/13 08:08:07;;;;;;;7.60;6.32;;;;;;;;;;4986113;28;20232;-77
2022/04/13 08:10:32;;;;;;;8.23;6.18;;;;;;;;;;4981409;28;20351;-76
2022/04/13 08:13:00;;;;;;;6.75;6.05;;;;;;;;;;4980731;28;20241;-76
2022/04/13 08:15:25;;;;;;;8.27;6.32;;;;;;;;;;4980018;28;20208;-77
2022/04/13 08:17:53;;;;;;;8.85;6.25;;;;;;;;;;4971727;28;20226;-78
2022/04/13 08:20:19;;;;;;;7.23;6.40;;;;;;;;;;4989704;28;20456;-76
2022/04/13 08:22:46;;;;;;;6.75;6.05;;;;;;;;;;4997628;28;20221;-80
2022/04/13 08:25:12;;;;;;;6.45;5.82;;;;;;;;;;5010206;28;20241;-79
2022/04/13 08:27:41;;;;;;;8.25;5.82;;;;;;;;;;5003003;28;20229;-80
2022/04/13 08:30:07;;;;;;;9.18;6.13;;;;;;;;;;4983759;28;20212;-80
2022/04/13 08:32:37;;;;;;;8.57;6.40;;;;;;;;;;4998413;28;21807;-80
2022/04/13 08:35:09;;;;;;;6.85;5.30;;;;;;;;;;5015393;28;20472;-79
2022/04/13 08:37:37;;;;;;;5.57;4.97;;;;;;;;;;5015377;28;20233;-81
2022/04/13 08:40:03;;;;;;;9.38;5.88;;;;;;;;;;4987730;28;20484;-76
2022/04/13 08:42:44;;;;;;;6.22;4.97;;;;;;;;;;5016427;28;20220;-76
2022/04/13 08:45:25;;;;;;;7.28;4.72;;;;;;;;;;4999963;28;20279;-74
2022/04/13 08:48:01;;;;;;;7.10;4.80;;;;;;;;;;5001585;28;20237;-77
2022/04/13 08:50:30;;;;;;;5.93;4.80;;;;;;;;;;4983065;28;20443;-76
2022/04/13 08:53:00;;;;;;;5.47;4.32;;;;;;;;;;4999615;28;20225;-77
2022/04/13 08:55:26;;;;;;;6.15;4.38;;;;;;;;;;4966387;28;20275;-77
2022/04/13 08:58:21;;;;;;;5.82;4.50;;;;;;;;;;4970263;28;20221;-77
2022/04/13 09:00:50;;;;;;;5.20;4.32;;;;;;;;;;5002925;28;20226;-77
2022/04/13 09:03:21;;;;;;;6.63;4.97;;;;;;;;;;4975424;28;20459;-75
2022/04/13 09:05:52;;;;;;;4.68;4.22;;;;;;;;;;4957012;28;20229;-75
2022/04/13 09:08:23;;;;;;;5.43;4.57;;;;;;;;;;4956783;28;20249;-76
2022/04/13 09:10:53;;;;;;;6.82;4.30;;;;;;;;;;4976304;28;20232;-76
2022/04/13 09:13:24;;;;;;;7.18;4.72;;;;;;;;;;4961088;28;20848;-77
2022/04/13 09:15:52;;;;;;;7.65;4.93;;;;;;;;;;4948889;28;20217;-76
2022/04/13 09:18:20;;;;;;;6.80;4.40;;;;;;;;;;4936174;28;20232;-76
2022/04/13 09:20:45;;;;;;;5.70;4.25;;;;;;;;;;4940987;28;20229;-77
2022/04/13 09:23:11;;;;;;;5.50;4.38;;;;;;;;;;4955189;28;20240;-77
2022/04/13 09:25:44;;;;;;;6.07;4.20;;;;;;;;;;4941945;28;20236;-77
2022/04/13 09:28:20;;;;;;;4.97;4.00;;;;;;;;;;4937750;28;20228;-76
2022/04/13 09:30:45;;;;;;;7.85;4.60;;;;;;;;;;4948585;28;20617;-77
2022/04/13 09:33:11;;;;;;;8.00;5.60;;;;;;;;;;4981247;28;20439;-77
2022/04/13 09:35:39;;;;;;;7.93;5.07;;;;;;;;;;4971759;28;20455;-79
2022/04/13 09:38:07;;;;;;;7.18;5.03;;;;;;;;;;4956528;28;20631;-77
2022/04/13 09:40:44;;;;;;;9.55;4.85;;;;;;;;;;4952116;28;20318;-77
2022/04/13 09:43:13;;;;;;;7.15;5.00;;;;;;;;;;4979809;28;20965;-73
2022/04/13 09:45:43;;;;;;;7.20;4.30;;;;;;;;;;4979277;28;20235;-75
2022/04/13 09:48:16;;;;;;;7.13;5.05;;;;;;;;;;4979497;28;20236;-76
2022/04/13 09:50:45;;;;;;;7.63;5.25;;;;;;;;;;4982298;28;20229;-77
2022/04/13 09:53:11;;;;;;;8.18;5.40;;;;;;;;;;4943106;28;20778;-77
2022/04/13 09:55:45;;;;;;;9.35;5.47;;;;;;;;;;4972802;28;20276;-77
2022/04/13 09:58:12;;;;;;;8.32;5.30;;;;;;;;;;4977843;28;21503;-76
2022/04/13 10:00:41;;;;;;;9.43;5.97;;;;;;;;;;4963605;28;20225;-77
2022/04/13 10:03:11;;;;;;;8.65;5.43;;;;;;;;;;4962187;28;20225;-77
2022/04/13 10:05:36;;;;;;;8.43;5.47;;;;;;;;;;4969924;28;20309;-76
2022/04/13 10:08:14;;;;;;;8.18;5.80;;;;;;;;;;4984117;28;20310;-78
2022/04/13 10:10:45;;;;;;;7.53;5.68;;;;;;;;;;4985457;28;20218;-77
2022/04/13 10:13:11;;;;;;;9.80;6.20;;;;;;;;;;4988958;28;20587;-77
2022/04/13 10:15:39;;;;;;;8.27;5.88;;;;;;;;;;4985928;28;20257;-78
2022/04/13 10:18:10;;;;;;;8.40;5.90;;;;;;;;;;5002390;28;20226;-78
2022/04/13 10:20:45;;;;;;;9.18;6.20;;;;;;;;;;4995335;28;20284;-79
2022/04/13 10:23:11;;;;;;;8.50;5.82;;;;;;;;;;4963734;28;20227;-78
2022/04/13 10:25:37;;;;;;;10.45;6.15;;;;;;;;;;4972406;28;20230;-78
2022/04/13 10:28:02;;;;;;;8.38;5.88;;;;;;;;;;4987950;28;20253;-77
2022/04/13 10:30:35;;;;;;;10.73;6.43;;;;;;;;;;4964575;28;20280;-77
2022/04/13 10:33:04;;;;;;;10.23;6.18;;;;;;;;;;4981146;28;20218;-79
2022/04/13 10:35:31;;;;;;;10.48;6.07;;;;;;;;;;5009050;28;20230;-78
2022/04/13 10:37:59;;;;;;;11.32;5.72;;;;;;;;;;4997938;28;20228;-79
2022/04/13 10:40:31;;;;;;;11.02;6.55;;;;;;;;;;4969009;28;20213;-79
2022/04/13 10:43:02;;;;;;;12.02;5.93;;;;;;;;;;4969476;28;20241;-78
2022/04/13 10:45:28;;;;;;;10.80;6.57;;;;;;;;;;4995573;28;20226;-78
2022/04/13 10:48:07;;;;;;;11.52;6.38;;;;;;;;;;4972393;28;20316;-79
2022/04/13 10:50:55;;;;;;;8.57;5.65;;;;;;;;;;5007157;28;20252;-80
2022/04/13 10:53:30;;;;;;;8.95;6.20;;;;;;;;;;5008999;28;20255;-79
2022/04/13 10:56:00;;;;;;;9.05;5.90;;;;;;;;;;4973404;28;20244;-79
2022/04/13 10:58:37;;;;;;;11.18;5.88;;;;;;;;;;4995596;28;20225;-80
2022/04/13 11:01:11;;;;;;;10.57;6.30;;;;;;;;;;4996981;28;20241;-78
2022/04/13 11:03:39;;;;;;;10.50;6.32;;;;;;;;;;4996964;28;20229;-78
2022/04/13 11:06:08;;;;;;;9.05;5.43;;;;;;;;;;5014157;28;20641;-78
2022/04/13 11:08:50;;;;;;;10.18;6.07;;;;;;;;;;5013848;28;20236;-79
2022/04/13 11:11:19;;;;;;;10.13;5.57;;;;;;;;;;5010672;28;20228;-77
2022/04/13 11:13:51;;;;;;;12.30;6.25;;;;;;;;;;4964376;28;20309;-80
2022/04/13 11:16:20;;;;;;;10.75;5.90;;;;;;;;;;4965689;28;20275;-79
2022/04/13 11:19:06;;;;;;;10.60;5.82;;;;;;;;;;5003483;28;20213;-79
2022/04/13 11:21:55;;;;;;;10.00;5.40;;;;;;;;;;5005657;28;20292;-80
2022/04/13 11:24:40;;;;;;;11.52;5.82;;;;;;;;;;5003830;28;20325;-79
2022/04/13 11:27:07;;;;;;;8.35;5.75;;;;;;;;;;5007850;28;20224;-79
2022/04/13 11:29:36;;;;;;;10.60;5.88;;;;;;;;;;5004810;28;20237;-78
2022/04/13 11:32:05;;;;;;;9.95;5.07;;;;;;;;;;4972818;28;20304;-79
2022/04/13 11:34:42;;;;;;;9.00;5.47;;;;;;;;;;4999029;28;20285;-78
2022/04/13 11:37:15;;;;;;;10.65;6.15;;;;;;;;;;4997688;28;20244;-77
2022/04/13 11:39:48;;;;;;;12.23;5.90;;;;;;;;;;4967211;28;20233;-79
2022/04/13 11:42:28;;;;;;;10.43;5.82;;;;;;;;;;4952568;28;20236;-79
2022/04/13 11:45:04;;;;;;;10.68;5.90;;;;;;;;;;4997514;28;20814;-79
2022/04/13 11:47:43;;;;;;;13.68;5.93;;;;;;;;;;4994139;28;20228;-79
2022/04/13 11:50:12;;;;;;;9.57;6.43;;;;;;;;;;4969565;28;20233;-79
2022/04/13 11:52:43;;;;;;;12.23;6.88;;;;;;;;;;5008969;28;20245;-78
2022/04/13 11:55:18;;;;;;;11.77;6.53;;;;;;;;;;5005941;28;20292;-80
2022/04/13 11:58:07;;;;;;;13.52;6.85;;;;;;;;;;5008819;28;20241;-77
2022/04/13 12:00:44;;;;;;;13.73;6.28;;;;;;;;;;5008080;28;20236;-76
2022/04/13 12:03:15;;;;;;;12.50;6.55;;;;;;;;;;4993468;28;20324;-78
2022/04/13 12:05:45;;;;;;;10.40;6.50;;;;;;;;;;5012021;28;20241;-77
2022/04/13 12:08:14;;;;;;;11.05;7.53;;;;;;;;;;5009751;28;20317;-79
2022/04/13 12:10:46;;;;;;;13.57;6.75;;;;;;;;;;4952928;28;20214;-81
2022/04/13 12:13:12;;;;;;;12.55;6.65;;;;;;;;;;4953092;28;20312;-78
2022/04/13 12:15:56;;;;;;;10.48;6.38;;;;;;;;;;4974697;28;20233;-80
2022/04/13 12:18:23;;;;;;;12.32;7.00;;;;;;;;;;4989950;28;20321;-78
2022/04/13 12:20:50;;;;;;;12.43;7.03;;;;;;;;;;4999272;28;20718;-79
2022/04/13 12:23:22;;;;;;;13.20;7.07;;;;;;;;;;5007908;28;20229;-80
2022/04/13 12:25:54;;;;;;;11.25;6.70;;;;;;;;;;4993994;28;20635;-80
2022/04/13 12:28:27;;;;;;;13.25;7.03;;;;;;;;;;4976263;28;20469;-77
2022/04/13 12:31:00;;;;;;;13.15;6.90;;;;;;;;;;5008929;28;20218;-79
2022/04/13 12:33:28;;;;;;;12.35;7.10;;;;;;;;;;4992044;28;20242;-79
2022/04/13 12:35:54;;;;;;;10.43;7.07;;;;;;;;;;4984815;28;20217;-79
2022/04/13 12:38:29;;;;;;;15.43;6.95;;;;;;;;;;4988904;28;20256;-80
2022/04/13 12:41:01;;;;;;;13.55;6.97;;;;;;;;;;4982428;28;20527;-79
2022/04/13 12:43:27;;;;;;;8.90;5.85;;;;;;;;;;5008028;28;20233;-78
2022/04/13 12:45:55;;;;;;;11.82;7.00;;;;;;;;;;4967432;28;20250;-78
2022/04/13 12:48:28;;;;;;;9.75;6.38;;;;;;;;;;4984195;28;20712;-78
2022/04/13 12:50:57;;;;;;;10.45;6.55;;;;;;;;;;4983797;28;20304;-77
2022/04/13 12:53:26;;;;;;;10.55;6.72;;;;;;;;;;4970610;28;20244;-78
2022/04/13 12:55:56;;;;;;;10.05;6.95;;;;;;;;;;4982174;28;20280;-79
2022/04/13 12:58:24;;;;;;;13.18;7.70;;;;;;;;;;4988316;28;20213;-79
2022/04/13 13:00:53;;;;;;;12.45;7.20;;;;;;;;;;5006581;28;20305;-77
2022/04/13 13:03:19;;;;;;;10.77;7.30;;;;;;;;;;5006262;28;20236;-78
2022/04/13 13:05:45;;;;;;;12.30;6.82;;;;;;;;;;4976056;28;20224;-79
2022/04/13 13:08:10;;;;;;;11.43;7.22;;;;;;;;;;4992309;28;20230;-79
2022/04/13 13:10:36;;;;;;;11.65;6.07;;;;;;;;;;4956283;28;20312;-79
2022/04/13 13:13:35;;;;;;;12.75;6.28;;;;;;;;;;4974240;28;20289;-78
2022/04/13 13:16:03;;;;;;;12.15;6.07;;;;;;;;;;4997809;28;20221;-78
2022/04/13 13:18:31;;;;;;;12.82;5.95;;;;;;;;;;4994654;28;20282;-80
2022/04/13 13:20:59;;;;;;;10.27;6.13;;;;;;;;;;4981701;28;20596;-78
2022/04/13 13:23:29;;;;;;;11.05;6.40;;;;;;;;;;4982492;28;20230;-79
2022/04/13 13:25:54;;;;;;;12.80;6.53;;;;;;;;;;4951283;28;20221;-77
2022/04/13 13:28:27;;;;;;;12.27;6.30;;;;;;;;;;4969115;28;20242;-79
2022/04/13 13:30:56;;;;;;;11.18;5.72;;;;;;;;;;4993506;28;20232;-79
2022/04/13 13:33:22;;;;;;;9.13;5.55;;;;;;;;;;4992837;28;20228;-79
2022/04/13 13:35:50;;;;;;;9.57;5.90;;;;;;;;;;4994284;28;20248;-76
2022/04/13 13:38:24;;;;;;;12.52;5.38;;;;;;;;;;4998920;28;20229;-76
2022/04/13 13:40:50;;;;;;;10.70;5.95;;;;;;;;;;4989473;28;20232;-76
2022/04/13 13:43:18;;;;;;;14.77;6.38;;;;;;;;;;5016118;28;20222;-77
2022/04/13 13:45:45;;;;;;;9.18;6.40;;;;;;;;;;5010864;28;20229;-77
2022/04/13 13:48:13;;;;;;;10.60;6.45;;;;;;;;;;4988356;28;20250;-78
2022/04/13 13:50:40;;;;;;;10.07;5.55;;;;;;;;;;5003662;28;20229;-77
2022/04/13 13:53:07;;;;;;;10.80;5.60;;;;;;;;;;4983325;28;20218;-79
2022/04/13 13:55:33;;;;;;;11.82;6.10;;;;;;;;;;4982699;28;20222;-80
2022/04/13 13:58:01;;;;;;;13.10;6.15;;;;;;;;;;4997517;28;20727;-78
2022/04/13 14:00:34;;;;;;;11.35;5.95;;;;;;;;;;4982410;28;20230;-80
2022/04/13 14:03:03;;;;;;;9.23;5.47;;;;;;;;;;4968345;28;20221;-80
2022/04/13 14:05:36;;;;;;;8.27;4.75;;;;;;;;;;5001734;28;20232;-78
2022/04/13 14:08:06;;;;;;;11.13;5.00;;;;;;;;;;4977635;28;20244;-80
2022/04/13 14:10:36;;;;;;;12.20;5.72;;;;;;;;;;5006150;28;20222;-79
2022/04/13 14:13:02;;;;;;;9.82;5.03;;;;;;;;;;4989951;28;20312;-79
2022/04/13 14:15:32;;;;;;;13.20;5.32;;;;;;;;;;4989625;28;20264;-78
2022/04/13 14:17:57;;;;;;;11.57;5.75;;;;;;;;;;4986692;28;20233;-77
2022/04/13 14:20:25;;;;;;;11.38;5.28;;;;;;;;;;4974947;28;20235;-78
2022/04/13 14:22:56;;;;;;;9.18;5.00;;;;;;;;;;4994612;28;20221;-77
2022/04/13 14:25:24;;;;;;;10.95;5.07;;;;;;;;;;4982460;28;20225;-78
2022/04/13 14:27:52;;;;;;;8.15;5.05;;;;;;;;;;5015069;28;20636;-79
2022/04/13 14:30:20;;;;;;;9.45;4.90;;;;;;;;;;5005986;28;20232;-80
2022/04/13 14:32:48;;;;;;;9.75;4.63;;;;;;;;;;4992074;28;20218;-79
2022/04/13 14:35:20;;;;;;;10.25;4.97;;;;;;;;;;5012814;28;20228;-78
2022/04/13 14:37:47;;;;;;;8.60;4.50;;;;;;;;;;4983305;28;20775;-79
2022/04/13 14:40:15;;;;;;;9.02;5.03;;;;;;;;;;4971519;28;20237;-78
2022/04/13 14:42:41;;;;;;;10.23;4.82;;;;;;;;;;5008437;28;20224;-78
2022/04/13 14:45:07;;;;;;;7.88;4.10;;;;;;;;;;4947595;28;20268;-78
2022/04/13 14:47:38;;;;;;;13.32;3.92;;;;;;;;;;4972450;28;20221;-78
2022/04/13 14:50:04;;;;;;;7.88;3.60;;;;;;;;;;4980331;28;20222;-77